Time;durP1;ratioP1;P1;durP2;ratioP2;P2;SDS_P1;SDS_P2;PMS_P1;PMS_P2;Temp;Humidity;BMP_temperature;BMP_pressure;BME280_temperature;BME280_humidity;BME280_pressure;Samples;Min_cycle;Max_cycle;Signal;HPM_P1;HPM_P2
2022/07/21 00:00:37;;;;;;;9.68;5.53;;;24.00;99.90;;;;;;5032965;28;20426;-77
2022/07/21 00:03:21;;;;;;;13.63;6.37;;;24.00;99.90;;;;;;5036051;28;20935;-77
2022/07/21 00:06:06;;;;;;;23.85;6.88;;;23.80;99.90;;;;;;5041318;28;20943;-77
2022/07/21 00:08:50;;;;;;;26.73;9.27;;;23.60;99.90;;;;;;5032884;28;20417;-75
2022/07/21 00:11:34;;;;;;;22.90;9.27;;;23.40;99.90;;;;;;5032785;28;20468;-75
2022/07/21 00:14:19;;;;;;;18.30;9.02;;;23.00;99.90;;;;;;5026776;28;20400;-75
2022/07/21 00:17:03;;;;;;;18.55;10.00;;;22.70;99.90;;;;;;5028696;28;20463;-77
2022/07/21 00:19:47;;;;;;;17.10;8.75;;;22.40;99.90;;;;;;5036959;28;20484;-76
2022/07/21 00:22:32;;;;;;;14.88;8.18;;;22.20;99.90;;;;;;5029501;28;20863;-75
2022/07/21 00:25:16;;;;;;;14.35;8.05;;;22.10;99.90;;;;;;5031787;28;20897;-75
2022/07/21 00:28:03;;;;;;;12.90;7.70;;;21.90;99.90;;;;;;5033359;28;20398;-75
2022/07/21 00:30:47;;;;;;;12.52;7.10;;;21.90;99.90;;;;;;5031629;28;20426;-76
2022/07/21 00:33:31;;;;;;;11.57;7.35;;;21.90;99.90;;;;;;5041525;28;20454;-76
2022/07/21 00:36:15;;;;;;;11.85;7.35;;;21.90;99.90;;;;;;5029612;28;20410;-76
2022/07/21 00:38:59;;;;;;;12.15;7.03;;;21.80;99.90;;;;;;5029001;28;20492;-76
2022/07/21 00:41:44;;;;;;;11.00;7.22;;;21.80;99.90;;;;;;5026495;28;20510;-76
2022/07/21 00:44:28;;;;;;;11.52;6.82;;;21.90;99.90;;;;;;5028491;28;20485;-75
2022/07/21 00:47:13;;;;;;;11.90;6.83;;;21.80;99.90;;;;;;5028509;28;20404;-77
2022/07/21 00:49:58;;;;;;;9.52;6.00;;;21.60;99.90;;;;;;5031439;28;20429;-75
2022/07/21 00:52:43;;;;;;;9.65;5.70;;;21.40;99.90;;;;;;5027971;28;20474;-75
2022/07/21 00:55:27;;;;;;;8.25;5.55;;;21.30;99.90;;;;;;5027581;28;20468;-76
2022/07/21 00:58:12;;;;;;;9.02;5.95;;;21.30;99.90;;;;;;5037772;28;20404;-76
2022/07/21 01:00:56;;;;;;;9.95;6.30;;;22.20;99.90;;;;;;5028302;28;20430;-76
2022/07/21 01:03:41;;;;;;;9.57;6.33;;;21.10;99.90;;;;;;5022819;28;20930;-76
2022/07/21 01:06:25;;;;;;;8.63;6.00;;;21.00;99.90;;;;;;5025294;28;20386;-76
2022/07/21 01:09:10;;;;;;;9.97;6.43;;;21.00;99.90;;;;;;5028852;28;20448;-76
2022/07/21 01:11:55;;;;;;;8.85;6.22;;;21.00;99.90;;;;;;5028730;28;20609;-75
2022/07/21 01:14:39;;;;;;;10.52;6.15;;;21.00;99.90;;;;;;5033459;28;20453;-76
2022/07/21 01:17:24;;;;;;;8.13;5.40;;;21.00;99.90;;;;;;5031732;28;20414;-76
2022/07/21 01:20:11;;;;;;;7.32;4.47;;;20.90;99.90;;;;;;5034617;28;20532;-75
2022/07/21 01:22:56;;;;;;;4.88;4.32;;;20.90;99.90;;;;;;5027871;28;20483;-76
2022/07/21 01:25:39;;;;;;;4.97;3.90;;;20.90;99.90;;;;;;5026298;28;20432;-75
2022/07/21 01:28:24;;;;;;;6.60;3.90;;;20.80;99.90;;;;;;5026635;28;20491;-76
2022/07/21 01:31:08;;;;;;;4.50;3.70;;;20.80;99.90;;;;;;5027753;28;20450;-76
2022/07/21 01:33:52;;;;;;;6.13;4.00;;;20.80;99.90;;;;;;5035767;28;20407;-75
2022/07/21 01:36:37;;;;;;;5.85;4.03;;;20.70;99.90;;;;;;5038268;28;20401;-75
2022/07/21 01:42:25;;;;;;;8.65;3.65;;;20.70;99.90;;;;;;5031380;28;20427;-75
2022/07/21 01:45:10;;;;;;;6.97;3.42;;;20.70;99.90;;;;;;5032235;28;20397;-75
2022/07/21 01:47:54;;;;;;;5.60;3.67;;;20.70;99.90;;;;;;5027452;28;20410;-76
2022/07/21 01:50:38;;;;;;;8.27;4.63;;;20.70;99.90;;;;;;5025338;28;21031;-76
2022/07/21 01:53:22;;;;;;;9.40;4.60;;;20.70;99.90;;;;;;5039965;28;20392;-76
2022/07/21 01:56:07;;;;;;;8.63;4.60;;;20.50;99.90;;;;;;5034416;28;20405;-76
2022/07/21 01:58:53;;;;;;;9.98;5.07;;;20.40;99.90;;;;;;5032954;28;20422;-76
2022/07/21 02:01:37;;;;;;;7.57;5.03;;;20.30;99.90;;;;;;5029974;28;20513;-76
2022/07/21 02:04:21;;;;;;;6.55;5.10;;;20.30;99.90;;;;;;5031527;28;20405;-77
2022/07/21 02:07:05;;;;;;;8.27;4.70;;;20.30;99.90;;;;;;5030972;28;20394;-76
2022/07/21 02:09:50;;;;;;;7.88;4.70;;;20.30;99.90;;;;;;5030039;28;20468;-76
2022/07/21 02:12:34;;;;;;;7.25;5.20;;;20.30;99.90;;;;;;5035770;28;20798;-76
2022/07/21 02:15:18;;;;;;;8.77;5.25;;;20.30;99.90;;;;;;5041582;28;20439;-76
2022/07/21 02:18:03;;;;;;;9.57;5.68;;;20.40;99.90;;;;;;5039162;28;20417;-76
2022/07/21 02:20:47;;;;;;;9.90;6.10;;;20.30;99.90;;;;;;5031799;28;22061;-76
2022/07/21 02:23:32;;;;;;;8.90;5.57;;;20.10;99.90;;;;;;5032975;28;20500;-75
2022/07/21 02:26:16;;;;;;;8.98;5.70;;;20.10;99.90;;;;;;5038525;28;20412;-76
2022/07/21 02:29:00;;;;;;;7.97;5.55;;;20.20;99.90;;;;;;5029316;28;20420;-76
2022/07/21 02:31:44;;;;;;;10.13;6.13;;;20.30;99.90;;;;;;5032495;28;20434;-76
2022/07/21 02:34:28;;;;;;;8.53;6.00;;;20.30;99.90;;;;;;5035991;28;20443;-76
2022/07/21 02:37:13;;;;;;;9.15;6.03;;;20.30;99.90;;;;;;5034355;28;20389;-76
2022/07/21 02:39:57;;;;;;;7.83;6.40;;;20.30;99.90;;;;;;5031129;28;20786;-78
2022/07/21 02:42:42;;;;;;;10.13;6.35;;;20.30;99.90;;;;;;5033471;28;20394;-76
2022/07/21 02:45:26;;;;;;;9.10;6.40;;;20.30;99.90;;;;;;5033234;28;20421;-76
2022/07/21 02:48:12;;;;;;;9.25;6.43;;;20.30;99.90;;;;;;5033048;28;20408;-76
2022/07/21 02:50:56;;;;;;;9.90;6.60;;;20.40;99.90;;;;;;5031592;28;20445;-75
2022/07/21 02:53:40;;;;;;;9.02;6.78;;;20.30;99.90;;;;;;5030942;28;20398;-76
2022/07/21 02:56:24;;;;;;;10.50;7.38;;;20.30;99.90;;;;;;5035366;28;20533;-76
2022/07/21 02:59:08;;;;;;;9.80;7.07;;;20.30;99.90;;;;;;5033331;28;20380;-76
2022/07/21 03:01:52;;;;;;;12.15;7.95;;;20.30;99.90;;;;;;5040515;28;20432;-75
2022/07/21 03:04:37;;;;;;;12.07;7.53;;;20.30;99.90;;;;;;5035126;28;20410;-76
2022/07/21 03:07:21;;;;;;;12.90;8.88;;;20.20;99.90;;;;;;5029225;28;20415;-76
2022/07/21 03:10:05;;;;;;;11.77;8.38;;;20.10;99.90;;;;;;5036584;28;20442;-76
2022/07/21 03:12:49;;;;;;;14.77;8.63;;;20.10;99.90;;;;;;5031903;28;20418;-75
2022/07/21 03:15:34;;;;;;;11.85;8.35;;;20.00;99.90;;;;;;5035413;28;20473;-75
2022/07/21 03:18:18;;;;;;;10.43;8.20;;;20.00;99.90;;;;;;5034201;28;20421;-76
2022/07/21 03:21:03;;;;;;;12.50;8.45;;;20.00;99.90;;;;;;5024426;28;20424;-76
2022/07/21 03:23:47;;;;;;;11.50;9.13;;;20.00;99.90;;;;;;5035086;28;20393;-77
2022/07/21 03:26:31;;;;;;;10.83;8.93;;;20.00;99.90;;;;;;5033137;28;20499;-76
2022/07/21 03:29:16;;;;;;;11.43;9.43;;;19.90;99.90;;;;;;5039292;28;20407;-75
2022/07/21 03:32:00;;;;;;;10.40;8.52;;;19.90;99.90;;;;;;5034403;28;20490;-78
2022/07/21 03:34:45;;;;;;;12.23;9.05;;;19.90;99.90;;;;;;5030978;28;20958;-76
2022/07/21 03:37:29;;;;;;;11.85;9.32;;;19.90;99.90;;;;;;5033522;28;20430;-76
2022/07/21 03:40:15;;;;;;;13.60;9.30;;;19.80;99.90;;;;;;5032623;28;20462;-76
2022/07/21 03:43:01;;;;;;;11.70;8.90;;;19.90;99.90;;;;;;5033022;28;20474;-76
2022/07/21 03:45:46;;;;;;;10.23;8.23;;;19.80;99.90;;;;;;5030024;28;20457;-76
2022/07/21 03:48:30;;;;;;;10.55;8.05;;;19.80;99.90;;;;;;5032470;28;20402;-76
2022/07/21 03:51:14;;;;;;;10.68;8.02;;;19.80;99.90;;;;;;5033082;28;20441;-76
2022/07/21 03:53:59;;;;;;;11.68;8.63;;;20.00;99.90;;;;;;5036154;28;20434;-76
2022/07/21 03:56:43;;;;;;;11.35;8.45;;;20.00;99.90;;;;;;5033141;28;20463;-76
2022/07/21 03:59:27;;;;;;;9.68;8.25;;;20.00;99.90;;;;;;5031223;28;20405;-76
2022/07/21 04:02:11;;;;;;;11.20;7.90;;;20.00;99.90;;;;;;5035411;28;20413;-75
2022/07/21 04:04:56;;;;;;;12.07;8.45;;;20.00;99.90;;;;;;5035224;28;20450;-76
2022/07/21 04:07:42;;;;;;;12.82;8.50;;;20.00;99.90;;;;;;5034806;28;20398;-76
2022/07/21 04:10:30;;;;;;;12.90;9.20;;;20.00;99.90;;;;;;5032368;28;20414;-75
2022/07/21 04:13:15;;;;;;;11.93;8.52;;;20.00;99.90;;;;;;5042546;28;20396;-76
2022/07/21 04:15:59;;;;;;;12.75;8.50;;;20.00;99.90;;;;;;5032614;28;20440;-76
2022/07/21 04:18:44;;;;;;;12.07;9.63;;;20.00;99.90;;;;;;5034389;28;20433;-78
2022/07/21 04:21:28;;;;;;;13.38;9.48;;;19.90;99.90;;;;;;5028663;28;20427;-77
2022/07/21 04:24:12;;;;;;;10.75;9.23;;;19.90;99.90;;;;;;5028996;28;20410;-80
2022/07/21 04:26:57;;;;;;;12.82;9.30;;;19.90;99.90;;;;;;5028537;28;20817;-78
2022/07/21 04:29:41;;;;;;;13.45;9.60;;;19.90;99.90;;;;;;5023408;28;20452;-77
2022/07/21 04:32:25;;;;;;;12.70;10.03;;;19.80;99.90;;;;;;5028532;28;20430;-77
2022/07/21 04:35:10;;;;;;;13.97;10.20;;;19.80;99.90;;;;;;5030684;28;20461;-78
2022/07/21 04:37:54;;;;;;;14.23;10.60;;;19.80;99.90;;;;;;5033660;28;20833;-77
2022/07/21 04:40:38;;;;;;;19.00;10.85;;;19.80;99.90;;;;;;5021006;28;20458;-78
2022/07/21 04:43:22;;;;;;;16.80;11.57;;;19.80;99.90;;;;;;5026297;28;20883;-76
2022/07/21 04:46:07;;;;;;;12.45;11.15;;;19.80;99.90;;;;;;5028442;28;20756;-76
2022/07/21 04:48:51;;;;;;;14.70;11.35;;;19.80;99.90;;;;;;5032649;28;20449;-77
2022/07/21 04:51:35;;;;;;;15.00;11.80;;;19.80;99.90;;;;;;5026562;28;20417;-76
2022/07/21 04:54:19;;;;;;;13.40;11.27;;;19.80;99.90;;;;;;5036428;28;20406;-79
2022/07/21 04:57:05;;;;;;;16.23;11.35;;;19.80;99.90;;;;;;5025976;28;20423;-80
2022/07/21 04:59:50;;;;;;;14.40;11.70;;;19.80;99.90;;;;;;5021409;28;20414;-76
2022/07/21 05:02:34;;;;;;;14.63;11.50;;;19.90;99.90;;;;;;5041476;28;20445;-78
2022/07/21 05:05:18;;;;;;;16.00;12.20;;;19.90;99.90;;;;;;5032662;28;20410;-81
2022/07/21 05:08:02;;;;;;;17.00;12.00;;;19.90;99.90;;;;;;5026486;28;20403;-79
2022/07/21 05:10:47;;;;;;;14.10;12.32;;;20.00;99.90;;;;;;5028799;28;20430;-78
2022/07/21 05:13:31;;;;;;;16.35;13.27;;;19.90;99.90;;;;;;5029094;28;20438;-77
2022/07/21 05:16:15;;;;;;;17.48;13.48;;;20.00;99.90;;;;;;5031655;28;20500;-80
2022/07/21 05:18:59;;;;;;;18.95;13.55;;;20.00;99.90;;;;;;5032860;28;20506;-80
2022/07/21 05:21:52;;;;;;;17.10;13.93;;;20.00;99.90;;;;;;5040193;28;20484;-77
2022/07/21 05:24:36;;;;;;;21.63;15.07;;;20.00;99.90;;;;;;5020528;28;20458;-79
2022/07/21 05:27:20;;;;;;;21.40;15.33;;;19.90;99.90;;;;;;5041373;28;20424;-80
2022/07/21 05:30:05;;;;;;;20.88;14.85;;;19.90;99.90;;;;;;5028845;28;20465;-79
2022/07/21 05:32:50;;;;;;;20.67;15.30;;;19.90;99.90;;;;;;5033641;28;20418;-78
2022/07/21 05:35:34;;;;;;;19.93;16.10;;;19.90;99.90;;;;;;5032221;28;20488;-80
2022/07/21 05:38:18;;;;;;;23.90;17.38;;;19.80;99.90;;;;;;5034845;28;20530;-78
2022/07/21 05:41:03;;;;;;;23.02;16.63;;;19.80;99.90;;;;;;5040086;28;20464;-78
2022/07/21 05:43:47;;;;;;;20.52;16.63;;;19.80;99.90;;;;;;5033820;28;20452;-80
2022/07/21 05:46:31;;;;;;;21.92;16.38;;;19.80;99.90;;;;;;5032552;28;20409;-79
2022/07/21 05:49:15;;;;;;;14.25;11.63;;;19.80;99.90;;;;;;5039486;28;20491;-80
2022/07/21 05:52:14;;;;;;;10.68;8.23;;;19.70;99.90;;;;;;5056192;28;20383;-74
2022/07/21 05:54:58;;;;;;;6.40;5.75;;;19.70;99.90;;;;;;5068668;28;20415;-74
2022/07/21 05:57:42;;;;;;;7.32;5.13;;;19.70;99.90;;;;;;5059521;28;20475;-76
2022/07/21 06:00:26;;;;;;;6.88;4.93;;;19.70;99.90;;;;;;5064689;28;20461;-75
2022/07/21 06:03:10;;;;;;;9.05;5.47;;;19.70;99.90;;;;;;5053062;28;20490;-75
2022/07/21 06:05:54;;;;;;;7.55;6.32;;;19.70;99.90;;;;;;5067354;28;20430;-74
2022/07/21 06:08:41;;;;;;;6.82;6.13;;;19.70;99.90;;;;;;5056656;28;20415;-79
2022/07/21 06:11:25;;;;;;;7.47;5.75;;;19.70;99.90;;;;;;5057105;28;20578;-77
2022/07/21 06:14:09;;;;;;;6.68;5.97;;;19.80;99.90;;;;;;5065449;28;20494;-78
2022/07/21 06:16:54;;;;;;;6.40;5.25;;;19.80;99.90;;;;;;5056532;28;20496;-77
2022/07/21 06:19:38;;;;;;;6.43;5.53;;;19.90;99.90;;;;;;5067551;28;20931;-77
2022/07/21 06:22:22;;;;;;;6.00;5.40;;;19.90;99.90;;;;;;5066941;28;20435;-75
2022/07/21 06:25:07;;;;;;;6.05;5.45;;;19.90;99.90;;;;;;5059741;28;20983;-75
2022/07/21 06:27:51;;;;;;;6.03;5.50;;;19.90;99.90;;;;;;5058577;28;20462;-75
2022/07/21 06:30:35;;;;;;;6.95;5.50;;;19.90;99.90;;;;;;5066285;28;20420;-73
2022/07/21 06:33:20;;;;;;;6.22;5.60;;;20.00;99.90;;;;;;5061740;28;20456;-74
2022/07/21 06:36:05;;;;;;;5.53;5.03;;;20.00;99.90;;;;;;5062181;28;20954;-74
2022/07/21 06:38:49;;;;;;;6.45;4.90;;;20.00;99.90;;;;;;5063317;28;20459;-74
2022/07/21 06:41:33;;;;;;;6.00;5.05;;;20.00;99.90;;;;;;5064173;28;20406;-74
2022/07/21 06:44:17;;;;;;;5.70;5.20;;;20.00;99.90;;;;;;5065448;28;20404;-75
2022/07/21 06:47:04;;;;;;;5.35;4.85;;;20.00;99.90;;;;;;5059921;28;20473;-75
2022/07/21 06:49:48;;;;;;;5.70;5.10;;;20.10;99.90;;;;;;5071995;28;20421;-75
2022/07/21 06:52:34;;;;;;;5.53;5.03;;;20.10;99.90;;;;;;5057482;28;20418;-75
2022/07/21 06:55:18;;;;;;;5.20;4.78;;;20.10;99.90;;;;;;5058518;28;20415;-75
2022/07/21 06:58:10;;;;;;;5.95;5.35;;;20.10;99.90;;;;;;5053762;28;20432;-75
2022/07/21 07:00:54;;;;;;;5.78;5.25;;;20.20;99.90;;;;;;5060396;28;20558;-75
2022/07/21 07:03:38;;;;;;;5.93;5.30;;;20.20;99.90;;;;;;5047552;28;20421;-75
2022/07/21 07:06:23;;;;;;;5.97;5.28;;;20.10;99.90;;;;;;5046736;28;20420;-75
2022/07/21 07:09:07;;;;;;;6.40;5.70;;;20.10;99.90;;;;;;5052764;28;20403;-75
2022/07/21 07:11:52;;;;;;;5.80;5.30;;;20.00;99.90;;;;;;5038910;28;20940;-75
2022/07/21 07:14:36;;;;;;;6.40;5.65;;;20.00;99.90;;;;;;5059190;28;20433;-75
2022/07/21 07:17:20;;;;;;;6.38;5.78;;;20.00;99.90;;;;;;5047905;28;20443;-75
2022/07/21 07:20:07;;;;;;;6.70;6.00;;;20.00;99.90;;;;;;5051579;28;20460;-75
2022/07/21 07:22:51;;;;;;;7.07;6.38;;;20.00;99.90;;;;;;5050633;28;20900;-74
2022/07/21 07:25:35;;;;;;;6.93;6.32;;;20.00;99.90;;;;;;5040733;28;20512;-75
2022/07/21 07:28:19;;;;;;;6.90;6.30;;;20.00;99.90;;;;;;5043195;28;20900;-75
2022/07/21 07:31:03;;;;;;;7.88;7.07;;;20.10;99.90;;;;;;5038090;28;20482;-74
2022/07/21 07:33:47;;;;;;;7.05;6.45;;;20.00;99.90;;;;;;5043096;28;20471;-75
2022/07/21 07:36:32;;;;;;;7.32;6.72;;;20.00;99.90;;;;;;5044263;28;20473;-74
2022/07/21 07:39:16;;;;;;;7.35;6.65;;;20.00;99.90;;;;;;5048799;28;20775;-75
2022/07/21 07:42:01;;;;;;;7.65;6.82;;;20.10;99.90;;;;;;5044280;28;20458;-75
2022/07/21 07:44:46;;;;;;;7.65;6.95;;;20.10;99.90;;;;;;5051421;28;20955;-75
2022/07/21 07:47:30;;;;;;;8.00;7.20;;;20.10;99.90;;;;;;5040607;28;20418;-74
2022/07/21 07:50:15;;;;;;;8.00;7.20;;;20.00;99.90;;;;;;5045398;28;20449;-74
2022/07/21 07:52:59;;;;;;;7.63;6.93;;;20.00;99.90;;;;;;5044403;28;20427;-77
2022/07/21 07:55:43;;;;;;;7.97;7.28;;;20.10;99.90;;;;;;5043997;28;20431;-77
2022/07/21 07:58:27;;;;;;;7.90;7.20;;;20.00;99.90;;;;;;5050463;28;20424;-77
2022/07/21 08:01:12;;;;;;;8.65;7.82;;;20.00;99.90;;;;;;5039775;28;20422;-78
2022/07/21 08:03:56;;;;;;;8.90;8.00;;;20.10;99.90;;;;;;5030332;28;20925;-78
2022/07/21 08:06:41;;;;;;;9.23;8.43;;;20.10;99.90;;;;;;5053495;28;20401;-77
2022/07/21 08:09:25;;;;;;;9.18;8.40;;;20.20;99.90;;;;;;5049276;28;20401;-77
2022/07/21 08:12:09;;;;;;;10.30;9.40;;;20.20;99.90;;;;;;5049091;28;20452;-77
2022/07/21 08:14:53;;;;;;;10.43;9.38;;;20.20;99.90;;;;;;5051631;28;21028;-77
2022/07/21 08:17:37;;;;;;;10.63;9.75;;;20.30;99.90;;;;;;5045390;28;20993;-77
2022/07/21 08:20:21;;;;;;;12.35;11.20;;;20.30;99.90;;;;;;5045126;28;20416;-77
2022/07/21 08:23:06;;;;;;;12.40;11.30;;;20.30;99.90;;;;;;5052754;28;20459;-77
2022/07/21 08:25:50;;;;;;;12.90;11.63;;;20.40;99.90;;;;;;5040300;28;20444;-77
2022/07/21 08:28:35;;;;;;;11.32;10.38;;;20.60;99.90;;;;;;5049224;28;20464;-77
2022/07/21 08:31:19;;;;;;;11.32;10.32;;;20.70;99.90;;;;;;5051851;28;20430;-77
2022/07/21 08:34:03;;;;;;;11.60;10.50;;;20.70;99.90;;;;;;5050556;28;20472;-77
2022/07/21 08:36:47;;;;;;;10.23;9.40;;;20.70;99.90;;;;;;5055849;28;20765;-77
2022/07/21 08:39:31;;;;;;;10.65;9.55;;;20.70;99.90;;;;;;5042233;28;20831;-77
2022/07/21 08:42:16;;;;;;;9.80;9.00;;;20.90;99.90;;;;;;5045270;28;20417;-77
2022/07/21 08:45:01;;;;;;;9.90;9.10;;;20.90;99.90;;;;;;5037445;28;20465;-77
2022/07/21 08:47:45;;;;;;;8.77;8.05;;;20.90;99.90;;;;;;5041564;28;20514;-77
2022/07/21 08:50:33;;;;;;;9.48;8.68;;;21.00;99.90;;;;;;5043162;28;20420;-76
2022/07/21 08:53:18;;;;;;;9.57;8.68;;;21.00;99.90;;;;;;5040165;28;20414;-76
2022/07/21 08:56:02;;;;;;;10.98;9.93;;;21.00;99.90;;;;;;5060580;28;20431;-76
2022/07/21 08:58:46;;;;;;;12.25;9.80;;;21.00;99.90;;;;;;5047589;28;20414;-76
2022/07/21 09:01:30;;;;;;;11.23;10.18;;;20.90;99.90;;;;;;5041496;28;20441;-75
2022/07/21 09:04:27;;;;;;;11.47;10.27;;;21.00;99.90;;;;;;5045496;28;20420;-76
2022/07/21 09:07:11;;;;;;;12.35;11.25;;;21.00;99.90;;;;;;5058589;28;20456;-76
2022/07/21 09:10:01;;;;;;;13.35;12.05;;;21.00;99.90;;;;;;5043308;28;20430;-75
2022/07/21 09:12:52;;;;;;;14.75;13.25;;;21.10;99.90;;;;;;5043712;28;20421;-76
2022/07/21 09:15:36;;;;;;;14.95;13.55;;;21.20;99.90;;;;;;5039864;28;20440;-77
2022/07/21 09:18:20;;;;;;;15.82;14.32;;;21.20;99.90;;;;;;5035705;28;20436;-77
2022/07/21 09:21:06;;;;;;;16.95;14.68;;;21.30;99.90;;;;;;5046968;28;20443;-78
2022/07/21 09:23:50;;;;;;;16.25;14.63;;;21.50;99.90;;;;;;5038872;28;20411;-77
2022/07/21 09:27:05;;;;;;;15.85;14.27;;;21.60;99.90;;;;;;5037822;28;20810;-78
2022/07/21 09:29:50;;;;;;;15.48;14.15;;;21.60;99.90;;;;;;5054362;28;20542;-78
2022/07/21 09:32:37;;;;;;;15.50;14.00;;;21.70;99.90;;;;;;5039263;28;20430;-77
2022/07/21 09:35:22;;;;;;;15.80;14.40;;;21.70;99.90;;;;;;5036540;28;20504;-78
2022/07/21 09:38:12;;;;;;;16.13;14.48;;;21.70;99.90;;;;;;5060652;28;20411;-77
2022/07/21 09:41:11;;;;;;;16.90;15.30;;;21.90;99.90;;;;;;5040429;28;20428;-78
2022/07/21 09:43:57;;;;;;;18.40;16.70;;;22.00;99.90;;;;;;5033056;28;20456;-78
2022/07/21 09:46:44;;;;;;;17.33;15.63;;;22.10;99.90;;;;;;5034008;28;20557;-78
2022/07/21 09:49:32;;;;;;;16.95;15.45;;;22.10;99.90;;;;;;5054340;28;20777;-77
2022/07/21 09:52:25;;;;;;;16.85;15.35;;;22.20;99.90;;;;;;5042147;28;20501;-78
2022/07/21 09:55:15;;;;;;;16.97;15.30;;;22.10;99.90;;;;;;5041640;28;20761;-78
2022/07/21 09:58:01;;;;;;;17.38;15.77;;;22.20;99.90;;;;;;5054442;28;20562;-78
2022/07/21 10:00:45;;;;;;;18.67;16.98;;;22.20;99.90;;;;;;5038621;28;20408;-78
2022/07/21 10:03:29;;;;;;;17.90;16.20;;;22.30;99.90;;;;;;5037902;28;20448;-78
2022/07/21 10:06:17;;;;;;;14.65;13.20;;;22.40;99.90;;;;;;5042807;28;20489;-78
2022/07/21 10:09:04;;;;;;;15.60;14.13;;;22.50;99.90;;;;;;5042007;28;20428;-78
2022/07/21 10:11:48;;;;;;;17.98;13.77;;;22.50;99.90;;;;;;5046434;28;20523;-78
2022/07/21 10:14:34;;;;;;;16.27;14.68;;;22.50;99.90;;;;;;5044422;28;20468;-78
2022/07/21 10:17:20;;;;;;;17.02;15.35;;;22.50;99.90;;;;;;5035395;28;20424;-76
2022/07/21 10:20:17;;;;;;;16.65;15.13;;;22.50;99.90;;;;;;5039630;28;20494;-76
2022/07/21 10:23:14;;;;;;;17.90;15.70;;;22.50;99.90;;;;;;5039410;28;20908;-77
2022/07/21 10:25:58;;;;;;;17.58;15.77;;;22.50;99.90;;;;;;5040165;28;20449;-77
2022/07/21 10:28:44;;;;;;;18.25;16.58;;;22.40;99.90;;;;;;5052923;28;20466;-77
2022/07/21 10:31:28;;;;;;;17.20;15.55;;;22.50;99.90;;;;;;5049706;28;20542;-77
2022/07/21 10:34:12;;;;;;;18.02;16.15;;;22.60;99.90;;;;;;5034825;28;20404;-77
2022/07/21 10:36:56;;;;;;;17.20;15.60;;;22.60;99.90;;;;;;5044332;28;20821;-77
2022/07/21 10:39:41;;;;;;;16.98;15.30;;;22.70;99.90;;;;;;5044436;28;20800;-78
2022/07/21 10:42:25;;;;;;;16.70;15.10;;;22.70;99.90;;;;;;5042748;28;20436;-77
2022/07/21 10:45:32;;;;;;;16.52;14.95;;;22.80;99.90;;;;;;5054650;28;20405;-77
2022/07/21 10:48:39;;;;;;;15.98;14.48;;;23.00;99.90;;;;;;5056196;28;20515;-78
2022/07/21 10:51:25;;;;;;;17.23;15.63;;;23.20;99.90;;;;;;5045852;28;20470;-77
2022/07/21 10:54:16;;;;;;;17.75;16.05;;;23.30;99.90;;;;;;5052805;28;20763;-77
2022/07/21 10:57:26;;;;;;;16.83;15.13;;;23.60;99.90;;;;;;5041159;28;20921;-77
2022/07/21 11:00:24;;;;;;;16.00;14.43;;;23.60;99.90;;;;;;5061923;28;20483;-78
2022/07/21 11:03:16;;;;;;;17.95;16.10;;;23.70;99.90;;;;;;5058588;28;20407;-78
2022/07/21 11:06:09;;;;;;;15.17;13.77;;;23.70;99.90;;;;;;5041938;28;20445;-77
2022/07/21 11:09:03;;;;;;;15.67;14.07;;;23.80;99.90;;;;;;5055510;28;20473;-78
2022/07/21 11:11:47;;;;;;;16.03;14.50;;;23.90;99.90;;;;;;5049579;28;20855;-77
2022/07/21 11:14:40;;;;;;;16.10;14.60;;;24.00;99.90;;;;;;5050808;28;20389;-77
2022/07/21 11:17:28;;;;;;;15.70;13.95;;;24.00;99.90;;;;;;5054093;28;20432;-78
2022/07/21 11:20:14;;;;;;;15.20;13.30;;;24.00;99.90;;;;;;5038466;28;20451;-77
2022/07/21 11:23:02;;;;;;;13.25;11.88;;;24.00;99.90;;;;;;5052156;28;20462;-78
2022/07/21 11:25:47;;;;;;;15.32;12.55;;;24.00;99.90;;;;;;5041054;28;20500;-78
2022/07/21 11:28:31;;;;;;;12.75;11.52;;;24.00;99.90;;;;;;5054392;28;20403;-77
2022/07/21 11:31:21;;;;;;;12.82;11.18;;;24.10;99.90;;;;;;5044572;28;20849;-78
2022/07/21 11:34:05;;;;;;;14.35;12.38;;;24.20;99.90;;;;;;5039054;28;20448;-78
2022/07/21 11:37:01;;;;;;;14.15;12.85;;;24.30;99.90;;;;;;5052273;28;20530;-79
2022/07/21 11:39:45;;;;;;;14.98;13.18;;;24.30;99.90;;;;;;5049345;28;20478;-79
2022/07/21 11:42:30;;;;;;;12.02;10.93;;;24.40;99.90;;;;;;5045520;28;20545;-79
2022/07/21 11:45:17;;;;;;;10.68;9.55;;;24.30;99.90;;;;;;5051533;28;20417;-79
2022/07/21 11:48:01;;;;;;;11.10;9.90;;;24.30;99.90;;;;;;5045620;28;20463;-78
2022/07/21 11:51:02;;;;;;;12.60;11.30;;;24.30;99.90;;;;;;5060583;28;20455;-79
2022/07/21 11:53:46;;;;;;;13.10;11.57;;;24.40;99.90;;;;;;5059348;28;20533;-79
2022/07/21 11:56:40;;;;;;;13.18;11.82;;;24.30;99.90;;;;;;5043520;28;20410;-78
2022/07/21 11:59:24;;;;;;;15.03;11.43;;;24.20;99.90;;;;;;5042846;28;20408;-79
2022/07/21 12:02:10;;;;;;;13.23;11.70;;;24.00;99.90;;;;;;5050201;28;20407;-79
2022/07/21 12:04:56;;;;;;;14.25;12.85;;;24.00;99.90;;;;;;5043840;28;20416;-79
2022/07/21 12:07:46;;;;;;;13.20;11.93;;;24.00;99.90;;;;;;5048088;28;20470;-79
2022/07/21 12:10:30;;;;;;;14.30;12.05;;;24.00;99.90;;;;;;5046160;28;20425;-79
2022/07/21 12:13:14;;;;;;;14.95;13.45;;;23.90;99.90;;;;;;5037675;28;20408;-79
2022/07/21 12:15:58;;;;;;;15.25;13.15;;;23.90;99.90;;;;;;5049406;28;20958;-79
2022/07/21 12:18:42;;;;;;;15.55;13.95;;;23.90;99.90;;;;;;5043384;28;20404;-79
2022/07/21 12:21:27;;;;;;;15.25;13.75;;;23.90;99.90;;;;;;5045168;28;20412;-79
2022/07/21 12:24:11;;;;;;;14.65;13.18;;;23.80;99.90;;;;;;5051149;28;20463;-79
2022/07/21 12:27:13;;;;;;;14.77;12.98;;;23.80;99.90;;;;;;5057354;28;20399;-80
2022/07/21 12:29:58;;;;;;;12.45;11.25;;;23.70;99.90;;;;;;5039803;28;20426;-79
2022/07/21 12:32:48;;;;;;;11.75;10.60;;;23.70;99.90;;;;;;5043155;28;20904;-80
2022/07/21 12:35:33;;;;;;;12.25;11.05;;;23.60;99.90;;;;;;5044358;28;20466;-79
2022/07/21 12:38:19;;;;;;;11.90;10.70;;;23.50;99.90;;;;;;5054905;28;20433;-77
2022/07/21 12:41:03;;;;;;;12.63;11.10;;;23.50;99.90;;;;;;5061525;28;20519;-77
2022/07/21 12:44:15;;;;;;;11.75;10.57;;;23.50;99.90;;;;;;5042726;28;20515;-78
2022/07/21 12:47:13;;;;;;;11.30;10.10;;;23.60;99.90;;;;;;5043046;28;20424;-77
2022/07/21 12:50:04;;;;;;;11.00;9.80;;;23.70;99.90;;;;;;5057464;28;20452;-77
2022/07/21 12:52:49;;;;;;;10.13;8.90;;;23.70;99.90;;;;;;5047554;28;20462;-77
2022/07/21 12:55:33;;;;;;;9.30;7.75;;;23.40;99.90;;;;;;5047058;28;20469;-77
2022/07/21 12:58:17;;;;;;;10.13;7.00;;;23.80;99.90;;;;;;5045222;28;20496;-78
2022/07/21 13:01:01;;;;;;;7.82;7.03;;;23.70;99.90;;;;;;5045233;28;20416;-77
2022/07/21 13:03:45;;;;;;;10.55;7.45;;;23.70;99.90;;;;;;5038079;28;20498;-77
2022/07/21 13:06:30;;;;;;;9.23;7.60;;;23.70;99.90;;;;;;5049878;28;20414;-78
2022/07/21 13:09:14;;;;;;;9.85;7.82;;;23.70;99.90;;;;;;5045162;28;20481;-79
2022/07/21 13:11:58;;;;;;;11.55;8.20;;;23.70;99.90;;;;;;5037722;28;20965;-78
2022/07/21 13:14:42;;;;;;;9.93;7.55;;;23.70;99.90;;;;;;5044574;28;20400;-79
2022/07/21 13:17:26;;;;;;;9.25;7.28;;;23.60;99.90;;;;;;5043863;28;20402;-77
2022/07/21 13:20:11;;;;;;;8.85;7.00;;;23.70;99.90;;;;;;5049285;28;20410;-77
2022/07/21 13:22:55;;;;;;;9.90;7.10;;;23.70;99.90;;;;;;5046270;28;20462;-77
2022/07/21 13:25:39;;;;;;;8.68;6.80;;;23.80;99.90;;;;;;5042270;28;20923;-78
2022/07/21 13:28:23;;;;;;;7.97;6.63;;;23.90;99.90;;;;;;5037129;28;20457;-78
2022/07/21 13:31:08;;;;;;;8.55;6.78;;;24.10;99.90;;;;;;5038236;28;20416;-78
2022/07/21 13:33:52;;;;;;;9.98;7.18;;;24.20;99.90;;;;;;5041128;28;20502;-76
2022/07/21 13:36:37;;;;;;;10.25;8.00;;;24.30;99.90;;;;;;5038708;28;20442;-76
2022/07/21 13:39:26;;;;;;;8.23;6.20;;;24.30;99.90;;;;;;5031489;28;20426;-76
2022/07/21 13:42:11;;;;;;;7.82;6.47;;;24.40;99.90;;;;;;5037719;28;20773;-77
2022/07/21 13:44:56;;;;;;;10.20;7.50;;;24.50;99.90;;;;;;5044764;28;20431;-77
2022/07/21 13:47:40;;;;;;;9.43;7.18;;;24.50;99.90;;;;;;5036656;28;21060;-77
2022/07/21 13:50:24;;;;;;;9.82;6.40;;;24.50;99.90;;;;;;5045743;28;20436;-76
2022/07/21 13:53:08;;;;;;;7.97;6.63;;;24.60;99.90;;;;;;5043962;28;20518;-76
2022/07/21 13:55:53;;;;;;;9.88;6.93;;;24.70;99.90;;;;;;5046687;28;20426;-76
2022/07/21 13:58:38;;;;;;;8.93;7.28;;;24.80;99.90;;;;;;5045185;28;20548;-76
2022/07/21 14:01:22;;;;;;;9.02;6.95;;;24.90;99.90;;;;;;5039206;28;20434;-77
2022/07/21 14:04:06;;;;;;;10.07;8.48;;;24.90;99.90;;;;;;5037719;28;20938;-77
2022/07/21 14:06:52;;;;;;;9.37;8.37;;;24.90;99.90;;;;;;5037962;28;20497;-77
2022/07/21 14:09:36;;;;;;;9.98;8.00;;;24.90;99.90;;;;;;5039871;28;20425;-77
2022/07/21 14:12:20;;;;;;;9.82;8.52;;;24.90;99.90;;;;;;5042296;28;20460;-77
2022/07/21 14:15:05;;;;;;;10.33;8.00;;;24.90;99.90;;;;;;5037355;28;20432;-77